sensor_id;sensor_type;location;lat;lon;timestamp;temperature;humidity
9820;DHT22;4949;48.482;9.206;2023-05-21T00:04:17;16.60;78.20
9820;DHT22;4949;48.482;9.206;2023-05-21T00:09:20;16.40;78.60
9820;DHT22;4949;48.482;9.206;2023-05-21T00:14:21;16.40;78.70
9820;DHT22;4949;48.482;9.206;2023-05-21T00:19:21;16.30;78.90
9820;DHT22;4949;48.482;9.206;2023-05-21T00:24:22;16.30;79.00
9820;DHT22;4949;48.482;9.206;2023-05-21T00:29:23;16.30;79.70
9820;DHT22;4949;48.482;9.206;2023-05-21T00:34:26;16.20;79.70
9820;DHT22;4949;48.482;9.206;2023-05-21T00:39:26;16.10;80.10
9820;DHT22;4949;48.482;9.206;2023-05-21T00:44:29;16.10;80.40
9820;DHT22;4949;48.482;9.206;2023-05-21T00:49:33;16.00;80.90
9820;DHT22;4949;48.482;9.206;2023-05-21T00:54:34;16.00;80.90
9820;DHT22;4949;48.482;9.206;2023-05-21T00:59:37;15.90;81.10
9820;DHT22;4949;48.482;9.206;2023-05-21T01:04:38;15.80;81.20
9820;DHT22;4949;48.482;9.206;2023-05-21T01:09:40;15.80;81.30
9820;DHT22;4949;48.482;9.206;2023-05-21T01:14:42;15.70;81.70
9820;DHT22;4949;48.482;9.206;2023-05-21T01:19:43;15.70;81.90
9820;DHT22;4949;48.482;9.206;2023-05-21T01:24:44;15.60;81.80
9820;DHT22;4949;48.482;9.206;2023-05-21T01:29:49;15.60;82.20
9820;DHT22;4949;48.482;9.206;2023-05-21T01:45:55;15.40;82.30
9820;DHT22;4949;48.482;9.206;2023-05-21T01:51:00;15.40;82.40
9820;DHT22;4949;48.482;9.206;2023-05-21T01:56:03;15.30;82.50
9820;DHT22;4949;48.482;9.206;2023-05-21T02:01:05;15.30;82.50
9820;DHT22;4949;48.482;9.206;2023-05-21T02:06:05;15.20;82.70
9820;DHT22;4949;48.482;9.206;2023-05-21T02:11:09;15.20;82.50
9820;DHT22;4949;48.482;9.206;2023-05-21T02:16:11;15.20;82.40
9820;DHT22;4949;48.482;9.206;2023-05-21T02:21:15;15.10;82.50
9820;DHT22;4949;48.482;9.206;2023-05-21T02:26:18;15.00;82.70
9820;DHT22;4949;48.482;9.206;2023-05-21T02:31:21;15.00;82.70
9820;DHT22;4949;48.482;9.206;2023-05-21T02:36:21;14.90;83.00
9820;DHT22;4949;48.482;9.206;2023-05-21T02:41:25;14.90;83.20
9820;DHT22;4949;48.482;9.206;2023-05-21T02:46:26;14.80;83.70
9820;DHT22;4949;48.482;9.206;2023-05-21T02:51:29;14.80;83.80
9820;DHT22;4949;48.482;9.206;2023-05-21T02:56:33;14.80;84.10
9820;DHT22;4949;48.482;9.206;2023-05-21T03:01:33;14.70;84.20
9820;DHT22;4949;48.482;9.206;2023-05-21T03:06:37;14.70;84.30
9820;DHT22;4949;48.482;9.206;2023-05-21T03:11:37;14.60;84.20
9820;DHT22;4949;48.482;9.206;2023-05-21T03:16:42;14.60;84.80
9820;DHT22;4949;48.482;9.206;2023-05-21T03:21:43;14.50;84.60
9820;DHT22;4949;48.482;9.206;2023-05-21T03:26:43;14.50;84.60
9820;DHT22;4949;48.482;9.206;2023-05-21T03:31:44;14.40;84.90
9820;DHT22;4949;48.482;9.206;2023-05-21T03:36:46;14.30;84.90
9820;DHT22;4949;48.482;9.206;2023-05-21T03:41:49;14.30;85.20
9820;DHT22;4949;48.482;9.206;2023-05-21T03:46:49;14.30;85.40
9820;DHT22;4949;48.482;9.206;2023-05-21T03:51:52;14.20;84.90
9820;DHT22;4949;48.482;9.206;2023-05-21T03:56:55;14.20;85.40
9820;DHT22;4949;48.482;9.206;2023-05-21T04:02:01;14.20;85.60
9820;DHT22;4949;48.482;9.206;2023-05-21T04:07:01;14.20;85.80
9820;DHT22;4949;48.482;9.206;2023-05-21T04:12:04;14.10;85.60
9820;DHT22;4949;48.482;9.206;2023-05-21T04:17:05;14.10;85.90
9820;DHT22;4949;48.482;9.206;2023-05-21T04:22:05;14.10;86.60
9820;DHT22;4949;48.482;9.206;2023-05-21T04:27:06;14.00;86.80
9820;DHT22;4949;48.482;9.206;2023-05-21T04:32:09;14.00;86.70
9820;DHT22;4949;48.482;9.206;2023-05-21T04:37:14;13.90;86.60
9820;DHT22;4949;48.482;9.206;2023-05-21T04:42:17;14.00;86.90
9820;DHT22;4949;48.482;9.206;2023-05-21T04:47:18;14.10;87.30
9820;DHT22;4949;48.482;9.206;2023-05-21T04:52:19;14.10;86.80
9820;DHT22;4949;48.482;9.206;2023-05-21T04:57:20;14.10;87.00
9820;DHT22;4949;48.482;9.206;2023-05-21T05:02:21;14.10;87.20
9820;DHT22;4949;48.482;9.206;2023-05-21T05:07:24;14.10;87.30
9820;DHT22;4949;48.482;9.206;2023-05-21T05:12:25;14.20;87.30
9820;DHT22;4949;48.482;9.206;2023-05-21T05:17:28;14.20;87.60
9820;DHT22;4949;48.482;9.206;2023-05-21T05:22:31;14.20;87.50
9820;DHT22;4949;48.482;9.206;2023-05-21T05:27:32;14.30;87.50
9820;DHT22;4949;48.482;9.206;2023-05-21T05:32:33;14.40;87.50
9820;DHT22;4949;48.482;9.206;2023-05-21T05:37:34;14.40;87.20
9820;DHT22;4949;48.482;9.206;2023-05-21T05:42:37;14.50;87.60
9820;DHT22;4949;48.482;9.206;2023-05-21T05:47:37;14.60;86.90
9820;DHT22;4949;48.482;9.206;2023-05-21T05:52:41;14.60;86.50
9820;DHT22;4949;48.482;9.206;2023-05-21T05:57:44;14.70;86.70
9820;DHT22;4949;48.482;9.206;2023-05-21T06:02:44;14.70;86.60
9820;DHT22;4949;48.482;9.206;2023-05-21T06:07:46;14.80;86.50
9820;DHT22;4949;48.482;9.206;2023-05-21T06:12:49;14.90;86.40
9820;DHT22;4949;48.482;9.206;2023-05-21T06:17:52;15.00;86.40
9820;DHT22;4949;48.482;9.206;2023-05-21T06:22:52;15.00;86.00
9820;DHT22;4949;48.482;9.206;2023-05-21T06:27:58;14.70;85.80
9820;DHT22;4949;48.482;9.206;2023-05-21T06:33:01;15.20;85.90
9820;DHT22;4949;48.482;9.206;2023-05-21T06:38:04;15.40;85.70
9820;DHT22;4949;48.482;9.206;2023-05-21T06:43:05;15.50;85.60
9820;DHT22;4949;48.482;9.206;2023-05-21T06:48:08;15.60;85.10
9820;DHT22;4949;48.482;9.206;2023-05-21T06:53:09;15.70;85.00
9820;DHT22;4949;48.482;9.206;2023-05-21T06:58:10;15.90;84.50
9820;DHT22;4949;48.482;9.206;2023-05-21T07:03:13;16.00;84.40
9820;DHT22;4949;48.482;9.206;2023-05-21T07:08:14;16.10;84.30
9820;DHT22;4949;48.482;9.206;2023-05-21T07:13:16;16.20;84.40
9820;DHT22;4949;48.482;9.206;2023-05-21T07:18:17;16.40;83.70
9820;DHT22;4949;48.482;9.206;2023-05-21T07:23:18;16.60;83.40
9820;DHT22;4949;48.482;9.206;2023-05-21T07:28:21;16.70;82.60
9820;DHT22;4949;48.482;9.206;2023-05-21T07:33:22;16.80;81.90
9820;DHT22;4949;48.482;9.206;2023-05-21T07:38:25;16.90;80.90
9820;DHT22;4949;48.482;9.206;2023-05-21T07:43:26;17.10;80.90
9820;DHT22;4949;48.482;9.206;2023-05-21T07:48:29;17.30;80.10
9820;DHT22;4949;48.482;9.206;2023-05-21T07:53:32;17.50;79.70
9820;DHT22;4949;48.482;9.206;2023-05-21T07:58:33;17.70;78.80
9820;DHT22;4949;48.482;9.206;2023-05-21T08:03:37;17.90;78.60
9820;DHT22;4949;48.482;9.206;2023-05-21T08:08:37;18.00;78.50
9820;DHT22;4949;48.482;9.206;2023-05-21T08:13:40;18.30;77.70
9820;DHT22;4949;48.482;9.206;2023-05-21T08:18:45;18.30;75.40
9820;DHT22;4949;48.482;9.206;2023-05-21T08:23:46;18.50;75.20
9820;DHT22;4949;48.482;9.206;2023-05-21T08:28:49;18.60;75.00
9820;DHT22;4949;48.482;9.206;2023-05-21T08:33:50;18.80;75.40
9820;DHT22;4949;48.482;9.206;2023-05-21T08:38:54;18.90;75.10
9820;DHT22;4949;48.482;9.206;2023-05-21T08:44:00;19.00;74.10
9820;DHT22;4949;48.482;9.206;2023-05-21T08:49:02;19.00;73.50
9820;DHT22;4949;48.482;9.206;2023-05-21T08:54:06;19.20;74.60
9820;DHT22;4949;48.482;9.206;2023-05-21T08:59:07;19.40;73.60
9820;DHT22;4949;48.482;9.206;2023-05-21T09:04:09;19.60;75.00
9820;DHT22;4949;48.482;9.206;2023-05-21T09:09:29;19.80;73.70
9820;DHT22;4949;48.482;9.206;2023-05-21T09:14:34;20.00;72.20
9820;DHT22;4949;48.482;9.206;2023-05-21T09:19:36;20.10;72.70
9820;DHT22;4949;48.482;9.206;2023-05-21T09:24:40;20.20;71.10
9820;DHT22;4949;48.482;9.206;2023-05-21T09:29:41;20.40;71.20
9820;DHT22;4949;48.482;9.206;2023-05-21T09:34:41;20.50;70.90
9820;DHT22;4949;48.482;9.206;2023-05-21T09:39:42;20.60;70.00
9820;DHT22;4949;48.482;9.206;2023-05-21T09:44:46;20.80;70.50
9820;DHT22;4949;48.482;9.206;2023-05-21T09:49:49;21.10;70.20
9820;DHT22;4949;48.482;9.206;2023-05-21T09:54:52;21.10;69.10
9820;DHT22;4949;48.482;9.206;2023-05-21T09:59:55;21.20;70.20
9820;DHT22;4949;48.482;9.206;2023-05-21T10:04:56;21.40;69.20
9820;DHT22;4949;48.482;9.206;2023-05-21T10:10:00;21.50;69.10
9820;DHT22;4949;48.482;9.206;2023-05-21T10:15:03;21.70;69.40
9820;DHT22;4949;48.482;9.206;2023-05-21T10:20:09;21.80;67.70
9820;DHT22;4949;48.482;9.206;2023-05-21T10:25:12;22.00;66.70
9820;DHT22;4949;48.482;9.206;2023-05-21T10:30:17;22.10;66.70
9820;DHT22;4949;48.482;9.206;2023-05-21T10:35:18;22.20;66.60
9820;DHT22;4949;48.482;9.206;2023-05-21T10:40:19;22.40;65.60
9820;DHT22;4949;48.482;9.206;2023-05-21T10:45:25;22.50;65.40
9820;DHT22;4949;48.482;9.206;2023-05-21T10:56:23;22.80;64.60
9820;DHT22;4949;48.482;9.206;2023-05-21T11:01:28;22.90;63.80
9820;DHT22;4949;48.482;9.206;2023-05-21T11:06:33;23.00;63.20
9820;DHT22;4949;48.482;9.206;2023-05-21T11:11:41;23.00;63.70
9820;DHT22;4949;48.482;9.206;2023-05-21T11:16:44;23.20;63.40
9820;DHT22;4949;48.482;9.206;2023-05-21T11:21:49;23.40;63.00
9820;DHT22;4949;48.482;9.206;2023-05-21T11:32:00;23.70;61.50
9820;DHT22;4949;48.482;9.206;2023-05-21T11:42:30;24.00;60.90
9820;DHT22;4949;48.482;9.206;2023-05-21T11:47:33;24.20;60.40
9820;DHT22;4949;48.482;9.206;2023-05-21T11:52:37;24.30;59.70
9820;DHT22;4949;48.482;9.206;2023-05-21T11:57:43;24.50;59.50
9820;DHT22;4949;48.482;9.206;2023-05-21T12:02:49;24.60;58.40
9820;DHT22;4949;48.482;9.206;2023-05-21T12:07:51;24.70;58.10
9820;DHT22;4949;48.482;9.206;2023-05-21T12:12:54;24.60;57.30
9820;DHT22;4949;48.482;9.206;2023-05-21T12:17:55;24.80;57.00
9820;DHT22;4949;48.482;9.206;2023-05-21T12:22:57;25.00;57.10
9820;DHT22;4949;48.482;9.206;2023-05-21T12:27:58;25.10;55.80
9820;DHT22;4949;48.482;9.206;2023-05-21T12:33:02;25.20;55.20
9820;DHT22;4949;48.482;9.206;2023-05-21T12:38:03;25.20;55.70
9820;DHT22;4949;48.482;9.206;2023-05-21T12:43:11;25.20;55.80
9820;DHT22;4949;48.482;9.206;2023-05-21T12:48:12;25.30;54.80
9820;DHT22;4949;48.482;9.206;2023-05-21T12:53:13;25.30;55.50
9820;DHT22;4949;48.482;9.206;2023-05-21T12:58:13;25.40;55.20
9820;DHT22;4949;48.482;9.206;2023-05-21T13:03:16;25.30;54.10
9820;DHT22;4949;48.482;9.206;2023-05-21T13:08:18;25.40;54.60
9820;DHT22;4949;48.482;9.206;2023-05-21T13:13:19;25.40;55.00
9820;DHT22;4949;48.482;9.206;2023-05-21T13:18:21;25.40;54.60
9820;DHT22;4949;48.482;9.206;2023-05-21T13:23:22;25.50;54.50
9820;DHT22;4949;48.482;9.206;2023-05-21T13:28:28;25.60;54.80
9820;DHT22;4949;48.482;9.206;2023-05-21T13:33:28;25.60;54.30
9820;DHT22;4949;48.482;9.206;2023-05-21T13:38:30;25.60;53.50
9820;DHT22;4949;48.482;9.206;2023-05-21T13:43:31;25.60;53.60
9820;DHT22;4949;48.482;9.206;2023-05-21T13:48:34;25.60;53.80
9820;DHT22;4949;48.482;9.206;2023-05-21T13:53:35;25.60;53.00
9820;DHT22;4949;48.482;9.206;2023-05-21T13:58:36;25.60;53.00
9820;DHT22;4949;48.482;9.206;2023-05-21T14:03:42;25.70;53.20
9820;DHT22;4949;48.482;9.206;2023-05-21T14:08:45;25.70;53.30
9820;DHT22;4949;48.482;9.206;2023-05-21T14:13:46;25.80;53.40
9820;DHT22;4949;48.482;9.206;2023-05-21T14:18:52;25.90;53.20
9820;DHT22;4949;48.482;9.206;2023-05-21T14:23:53;25.90;53.40
9820;DHT22;4949;48.482;9.206;2023-05-21T14:28:58;26.10;52.80
9820;DHT22;4949;48.482;9.206;2023-05-21T14:33:59;26.00;52.10
9820;DHT22;4949;48.482;9.206;2023-05-21T14:39:02;26.00;52.60
9820;DHT22;4949;48.482;9.206;2023-05-21T14:44:07;26.00;51.70
9820;DHT22;4949;48.482;9.206;2023-05-21T14:49:08;26.10;51.70
9820;DHT22;4949;48.482;9.206;2023-05-21T14:54:13;26.10;50.40
9820;DHT22;4949;48.482;9.206;2023-05-21T14:59:16;26.30;49.90
9820;DHT22;4949;48.482;9.206;2023-05-21T15:04:16;26.40;50.00
9820;DHT22;4949;48.482;9.206;2023-05-21T15:09:19;26.40;50.00
9820;DHT22;4949;48.482;9.206;2023-05-21T15:14:20;26.30;50.20
9820;DHT22;4949;48.482;9.206;2023-05-21T15:19:21;26.20;50.20
9820;DHT22;4949;48.482;9.206;2023-05-21T15:24:25;26.20;50.70
9820;DHT22;4949;48.482;9.206;2023-05-21T15:29:28;26.10;51.30
9820;DHT22;4949;48.482;9.206;2023-05-21T15:34:31;26.10;50.70
9820;DHT22;4949;48.482;9.206;2023-05-21T15:39:34;26.10;50.60
9820;DHT22;4949;48.482;9.206;2023-05-21T15:44:35;26.10;50.10
9820;DHT22;4949;48.482;9.206;2023-05-21T15:49:38;26.00;50.60
9820;DHT22;4949;48.482;9.206;2023-05-21T15:54:39;26.00;51.00
9820;DHT22;4949;48.482;9.206;2023-05-21T15:59:40;25.90;51.20
9820;DHT22;4949;48.482;9.206;2023-05-21T16:04:40;25.80;51.50
9820;DHT22;4949;48.482;9.206;2023-05-21T16:09:44;25.80;50.90
9820;DHT22;4949;48.482;9.206;2023-05-21T16:14:48;25.70;51.20
9820;DHT22;4949;48.482;9.206;2023-05-21T16:19:51;25.60;51.40
9820;DHT22;4949;48.482;9.206;2023-05-21T16:24:53;25.70;51.40
9820;DHT22;4949;48.482;9.206;2023-05-21T16:29:55;25.80;50.70
9820;DHT22;4949;48.482;9.206;2023-05-21T16:34:58;26.10;50.30
9820;DHT22;4949;48.482;9.206;2023-05-21T16:39:59;26.40;48.90
9820;DHT22;4949;48.482;9.206;2023-05-21T16:45:06;26.70;47.90
9820;DHT22;4949;48.482;9.206;2023-05-21T16:50:10;26.70;47.70
9820;DHT22;4949;48.482;9.206;2023-05-21T16:55:11;26.70;48.00
9820;DHT22;4949;48.482;9.206;2023-05-21T17:00:14;26.70;48.20
9820;DHT22;4949;48.482;9.206;2023-05-21T17:05:18;26.60;48.10
9820;DHT22;4949;48.482;9.206;2023-05-21T17:10:22;26.70;48.20
9820;DHT22;4949;48.482;9.206;2023-05-21T17:15:26;26.60;47.20
9820;DHT22;4949;48.482;9.206;2023-05-21T17:20:27;26.40;47.80
9820;DHT22;4949;48.482;9.206;2023-05-21T17:25:28;26.40;47.70
9820;DHT22;4949;48.482;9.206;2023-05-21T17:30:28;26.30;47.60
9820;DHT22;4949;48.482;9.206;2023-05-21T17:35:29;26.30;47.60
9820;DHT22;4949;48.482;9.206;2023-05-21T17:40:30;26.30;47.50
9820;DHT22;4949;48.482;9.206;2023-05-21T17:45:31;26.20;46.90
9820;DHT22;4949;48.482;9.206;2023-05-21T17:50:31;26.00;48.20
9820;DHT22;4949;48.482;9.206;2023-05-21T17:55:33;25.90;48.20
9820;DHT22;4949;48.482;9.206;2023-05-21T18:00:34;26.00;48.00
9820;DHT22;4949;48.482;9.206;2023-05-21T18:05:35;26.00;48.00
9820;DHT22;4949;48.482;9.206;2023-05-21T18:10:38;25.80;49.50
9820;DHT22;4949;48.482;9.206;2023-05-21T18:15:39;25.80;51.80
9820;DHT22;4949;48.482;9.206;2023-05-21T18:20:41;26.00;56.10
9820;DHT22;4949;48.482;9.206;2023-05-21T18:25:41;26.10;58.50
9820;DHT22;4949;48.482;9.206;2023-05-21T18:30:47;26.40;60.60
9820;DHT22;4949;48.482;9.206;2023-05-21T18:35:47;26.50;58.80
9820;DHT22;4949;48.482;9.206;2023-05-21T18:40:49;26.80;54.80
9820;DHT22;4949;48.482;9.206;2023-05-21T18:45:50;27.30;52.70
9820;DHT22;4949;48.482;9.206;2023-05-21T18:50:51;27.60;51.40
9820;DHT22;4949;48.482;9.206;2023-05-21T18:55:52;27.50;50.60
9820;DHT22;4949;48.482;9.206;2023-05-21T19:00:55;27.10;51.10
9820;DHT22;4949;48.482;9.206;2023-05-21T19:05:56;26.80;51.70
9820;DHT22;4949;48.482;9.206;2023-05-21T19:10:59;26.30;53.10
9820;DHT22;4949;48.482;9.206;2023-05-21T19:16:00;25.50;54.50
9820;DHT22;4949;48.482;9.206;2023-05-21T19:21:01;24.70;56.80
9820;DHT22;4949;48.482;9.206;2023-05-21T19:26:02;24.20;58.40
9820;DHT22;4949;48.482;9.206;2023-05-21T19:31:07;23.80;59.40
9820;DHT22;4949;48.482;9.206;2023-05-21T19:36:20;23.40;60.10
9820;DHT22;4949;48.482;9.206;2023-05-21T19:41:52;23.00;61.20
9820;DHT22;4949;48.482;9.206;2023-05-21T19:46:59;22.70;62.80
9820;DHT22;4949;48.482;9.206;2023-05-21T19:52:03;22.40;63.70
9820;DHT22;4949;48.482;9.206;2023-05-21T19:57:14;22.10;64.20
9820;DHT22;4949;48.482;9.206;2023-05-21T20:02:21;22.10;64.50
9820;DHT22;4949;48.482;9.206;2023-05-21T20:07:24;22.00;63.90
9820;DHT22;4949;48.482;9.206;2023-05-21T20:12:25;22.00;63.90
9820;DHT22;4949;48.482;9.206;2023-05-21T20:17:29;22.10;63.20
9820;DHT22;4949;48.482;9.206;2023-05-21T20:22:29;21.90;63.60
9820;DHT22;4949;48.482;9.206;2023-05-21T20:27:31;21.40;64.00
9820;DHT22;4949;48.482;9.206;2023-05-21T20:32:33;20.80;63.30
9820;DHT22;4949;48.482;9.206;2023-05-21T20:37:34;20.90;65.10
9820;DHT22;4949;48.482;9.206;2023-05-21T20:42:36;20.50;66.10
9820;DHT22;4949;48.482;9.206;2023-05-21T20:47:39;20.40;66.50
9820;DHT22;4949;48.482;9.206;2023-05-21T20:52:40;20.20;67.90
9820;DHT22;4949;48.482;9.206;2023-05-21T20:57:42;20.00;68.60
9820;DHT22;4949;48.482;9.206;2023-05-21T21:02:43;19.80;69.00
9820;DHT22;4949;48.482;9.206;2023-05-21T21:07:44;19.70;69.40
9820;DHT22;4949;48.482;9.206;2023-05-21T21:12:47;19.50;70.00
9820;DHT22;4949;48.482;9.206;2023-05-21T21:17:48;19.40;70.40
9820;DHT22;4949;48.482;9.206;2023-05-21T21:22:49;19.30;70.50
9820;DHT22;4949;48.482;9.206;2023-05-21T21:28:09;19.10;70.80
9820;DHT22;4949;48.482;9.206;2023-05-21T21:33:15;18.90;71.70
9820;DHT22;4949;48.482;9.206;2023-05-21T21:38:19;18.80;72.20
9820;DHT22;4949;48.482;9.206;2023-05-21T21:43:20;18.70;72.50
9820;DHT22;4949;48.482;9.206;2023-05-21T21:48:23;18.60;72.90
9820;DHT22;4949;48.482;9.206;2023-05-21T21:53:26;18.50;73.40
9820;DHT22;4949;48.482;9.206;2023-05-21T21:58:27;18.30;73.50
9820;DHT22;4949;48.482;9.206;2023-05-21T22:03:31;18.30;73.30
9820;DHT22;4949;48.482;9.206;2023-05-21T22:08:33;18.20;73.60
9820;DHT22;4949;48.482;9.206;2023-05-21T22:13:36;18.10;73.80
9820;DHT22;4949;48.482;9.206;2023-05-21T22:18:37;18.00;74.50
9820;DHT22;4949;48.482;9.206;2023-05-21T22:23:40;17.80;74.90
9820;DHT22;4949;48.482;9.206;2023-05-21T22:28:41;17.70;74.80
9820;DHT22;4949;48.482;9.206;2023-05-21T22:33:49;17.60;75.10
9820;DHT22;4949;48.482;9.206;2023-05-21T22:38:54;17.50;74.50
9820;DHT22;4949;48.482;9.206;2023-05-21T22:43:55;17.40;74.80
9820;DHT22;4949;48.482;9.206;2023-05-21T22:48:56;17.30;75.10
9820;DHT22;4949;48.482;9.206;2023-05-21T22:53:57;17.20;75.30
9820;DHT22;4949;48.482;9.206;2023-05-21T22:58:58;17.10;75.20
9820;DHT22;4949;48.482;9.206;2023-05-21T23:03:59;17.10;75.40
9820;DHT22;4949;48.482;9.206;2023-05-21T23:09:00;17.00;75.50
9820;DHT22;4949;48.482;9.206;2023-05-21T23:14:00;16.90;75.40
9820;DHT22;4949;48.482;9.206;2023-05-21T23:19:01;16.90;76.00
9820;DHT22;4949;48.482;9.206;2023-05-21T23:24:02;16.80;76.10
9820;DHT22;4949;48.482;9.206;2023-05-21T23:29:05;16.70;77.00
9820;DHT22;4949;48.482;9.206;2023-05-21T23:34:06;16.70;77.40
9820;DHT22;4949;48.482;9.206;2023-05-21T23:39:07;16.60;77.70
9820;DHT22;4949;48.482;9.206;2023-05-21T23:44:08;16.50;77.70
9820;DHT22;4949;48.482;9.206;2023-05-21T23:49:09;16.50;78.50
9820;DHT22;4949;48.482;9.206;2023-05-21T23:54:10;16.30;78.50
9820;DHT22;4949;48.482;9.206;2023-05-21T23:59:11;16.30;78.50
